Time;durP1;ratioP1;P1;durP2;ratioP2;P2;SDS_P1;SDS_P2;PMS_P1;PMS_P2;Temp;Humidity;BMP_temperature;BMP_pressure;BME280_temperature;BME280_humidity;BME280_pressure;Samples;Min_cycle;Max_cycle;Signal;HPM_P1;HPM_P2
2023/04/18 00:05:16;;;;;;;7.80;7.10;;;;;;;6.00;100.00;99252.91;15270979;19;20106;-46
2023/04/18 00:10:43;;;;;;;8.27;7.47;;;;;;;5.95;100.00;99257.72;15268933;19;20011;-46
2023/04/18 00:16:09;;;;;;;8.05;7.35;;;;;;;5.95;100.00;99262.19;15267708;19;20476;-46
2023/04/18 00:21:33;;;;;;;8.45;7.63;;;;;;;5.98;100.00;99256.63;15272044;19;20629;-47
2023/04/18 00:27:01;;;;;;;8.93;8.02;;;;;;;5.94;100.00;99253.31;15274749;19;20046;-46
2023/04/18 00:32:27;;;;;;;8.23;7.43;;;;;;;5.93;100.00;99253.44;15302201;19;20027;-46
2023/04/18 00:37:52;;;;;;;9.30;8.40;;;;;;;5.93;100.00;99253.44;15301639;19;20671;-46
2023/04/18 00:43:20;;;;;;;9.55;8.65;;;;;;;5.90;100.00;99257.19;15294400;19;20948;-47
2023/04/18 00:48:45;;;;;;;9.75;8.77;;;;;;;5.89;100.00;99262.66;15301280;19;20021;-46
2023/04/18 00:54:11;;;;;;;9.40;8.35;;;;;;;5.88;100.00;99255.59;15296086;19;20022;-47
2023/04/18 00:59:40;;;;;;;9.85;8.75;;;;;;;5.85;100.00;99260.19;15299756;19;20014;-47
2023/04/18 01:05:05;;;;;;;10.18;9.18;;;;;;;5.89;100.00;99254.63;15297068;19;20018;-47
2023/04/18 01:10:32;;;;;;;10.20;9.15;;;;;;;5.90;100.00;99251.84;15300111;19;20026;-47
2023/04/18 01:16:01;;;;;;;11.02;10.02;;;;;;;5.89;100.00;99247.44;15291152;19;20015;-46
2023/04/18 01:21:29;;;;;;;10.43;9.43;;;;;;;5.91;100.00;99248.19;15299294;19;20106;-44
2023/04/18 01:26:58;;;;;;;13.30;11.90;;;;;;;5.88;100.00;99252.91;15295020;19;20019;-45
2023/04/18 01:32:24;;;;;;;13.32;11.93;;;;;;;5.88;100.00;99252.91;15295271;19;20507;-45
2023/04/18 01:37:48;;;;;;;16.08;13.43;;;;;;;5.85;100.00;99257.53;15298300;19;20021;-45
2023/04/18 01:43:16;;;;;;;15.57;12.73;;;;;;;5.83;100.00;99270.13;15278865;19;20026;-44
2023/04/18 01:48:40;;;;;;;18.98;13.45;;;;;;;5.84;100.00;99261.16;15280379;19;20022;-44
2023/04/18 01:54:05;;;;;;;20.23;13.65;;;;;;;5.82;100.00;99263.06;15277546;19;20015;-46
2023/04/18 01:59:33;;;;;;;16.92;14.40;;;;;;;5.85;100.00;99275.41;15281787;19;20101;-45
2023/04/18 02:04:57;;;;;;;16.83;13.57;;;;;;;5.81;100.00;99272.09;15273828;19;20010;-44
2023/04/18 02:10:23;;;;;;;17.60;14.02;;;;;;;5.80;100.00;99282.88;15274672;19;20015;-46
2023/04/18 02:15:50;;;;;;;25.30;13.73;;;;;;;5.77;100.00;99289.31;15276396;19;20017;-46
2023/04/18 02:21:15;;;;;;;21.85;12.95;;;;;;;5.76;100.00;99297.44;15275220;19;20018;-43
2023/04/18 02:26:40;;;;;;;18.38;12.98;;;;;;;5.74;100.00;99310.91;15278723;19;20105;-48
2023/04/18 02:32:08;;;;;;;22.20;12.38;;;;;;;5.71;100.00;99317.34;15279089;19;20014;-48
2023/04/18 02:37:32;;;;;;;15.35;11.85;;;;;;;5.70;100.00;99328.16;15276089;19;20014;-48
2023/04/18 02:42:57;;;;;;;15.73;11.05;;;;;;;5.73;100.00;99337.78;15274971;19;20010;-44
2023/04/18 02:48:24;;;;;;;10.88;9.18;;;;;;;5.73;100.00;99333.25;15277287;19;20436;-43
2023/04/18 02:53:53;;;;;;;10.98;8.40;;;;;;;5.77;100.00;99340.13;15263267;19;20395;-43
2023/04/18 02:59:32;;;;;;;8.43;7.40;;;;;;;5.78;100.00;99336.47;15270381;19;20671;-44
2023/04/18 03:05:18;;;;;;;8.18;6.70;;;;;;;5.77;100.00;99339.25;15272590;19;20018;-43
2023/04/18 03:10:47;;;;;;;7.90;6.82;;;;;;;5.80;100.00;99353.28;15272805;19;20042;-43
2023/04/18 03:16:15;;;;;;;9.43;7.22;;;;;;;5.80;100.00;99358.63;15265539;19;20447;-45
2023/04/18 03:21:43;;;;;;;9.85;6.80;;;;;;;5.79;100.00;99351.56;15269986;19;20052;-44
2023/04/18 03:27:09;;;;;;;9.25;7.65;;;;;;;5.81;100.00;99362.16;15265158;19;20034;-43
2023/04/18 03:32:33;;;;;;;9.98;8.20;;;;;;;5.82;100.00;99372.72;15270536;19;20022;-45
2023/04/18 03:38:01;;;;;;;11.90;9.02;;;;;;;5.83;100.00;99369.09;15274596;19;20025;-43
2023/04/18 03:43:25;;;;;;;12.75;8.57;;;;;;;5.84;100.00;99372.63;15272679;19;20132;-44
2023/04/18 03:48:50;;;;;;;11.23;8.10;;;;;;;5.89;100.00;99374.97;15272113;19;20010;-46
2023/04/18 03:54:17;;;;;;;10.27;7.22;;;;;;;5.90;100.00;99376.69;15268666;19;20047;-46
2023/04/18 03:59:43;;;;;;;11.23;7.93;;;;;;;5.92;100.00;99380.13;15261858;19;20018;-45
2023/04/18 04:05:08;;;;;;;12.07;8.80;;;;;;;5.95;100.00;99382.56;15263553;19;20940;-46
2023/04/18 04:10:37;;;;;;;13.07;9.23;;;;;;;5.98;100.00;99385.03;15269363;19;20038;-44
2023/04/18 04:16:01;;;;;;;13.30;9.75;;;;;;;6.01;100.00;99390.19;15268367;19;20027;-45
2023/04/18 04:21:27;;;;;;;15.88;10.90;;;;;;;6.02;100.00;99389.25;15268914;19;20018;-45
2023/04/18 04:26:58;;;;;;;15.77;11.38;;;;;;;6.05;100.00;99397.06;15269122;19;20482;-44
2023/04/18 04:32:27;;;;;;;17.23;11.50;;;;;;;6.09;100.00;99397.69;15262319;19;20076;-46
2023/04/18 04:37:52;;;;;;;16.38;12.20;;;;;;;6.10;100.00;99394.91;15266188;19;20019;-44
2023/04/18 04:43:27;;;;;;;20.98;14.50;;;;;;;6.14;100.00;99412.44;15267727;19;20047;-46
2023/04/18 04:48:54;;;;;;;26.77;16.98;;;;;;;6.15;100.00;99408.81;15268995;19;20026;-47
2023/04/18 04:54:19;;;;;;;32.08;18.70;;;;;;;6.17;100.00;99425.59;15265893;19;20365;-45
2023/04/18 04:59:46;;;;;;;37.80;22.67;;;;;;;6.23;100.00;99427.00;15268550;19;20488;-47
2023/04/18 05:05:12;;;;;;;46.42;25.42;;;;;;;6.26;100.00;99444.66;15260480;19;20022;-44
2023/04/18 05:10:37;;;;;;;56.33;27.35;;;;;;;6.30;100.00;99454.16;15268959;19;20554;-45
2023/04/18 05:16:04;;;;;;;100.85;30.08;;;;;;;6.29;100.00;99464.03;15267572;19;20018;-46
2023/04/18 05:21:30;;;;;;;116.30;32.28;;;;;;;6.33;100.00;99456.63;15282400;19;20019;-45
2023/04/18 05:27:02;;;;;;;138.27;38.15;;;;;;;6.32;100.00;99457.59;15283057;19;20018;-49
2023/04/18 05:32:30;;;;;;;75.68;39.30;;;;;;;6.35;100.00;99468.09;15279580;19;20018;-46
2023/04/18 05:37:55;;;;;;;55.22;37.50;;;;;;;6.35;100.00;99468.09;15278588;19;20029;-46
2023/04/18 05:43:20;;;;;;;47.60;34.53;;;;;;;6.38;100.00;99457.16;15279051;19;20017;-45
2023/04/18 05:48:48;;;;;;;48.08;34.13;;;;;;;6.39;100.00;99463.38;15278308;19;20022;-45
2023/04/18 05:54:12;;;;;;;49.13;33.05;;;;;;;6.39;100.00;99469.59;15274934;19;20022;-46
2023/04/18 05:59:37;;;;;;;41.25;32.50;;;;;;;6.43;100.00;99471.06;15280780;19;20022;-47
2023/04/18 06:05:04;;;;;;;38.22;30.95;;;;;;;6.45;100.00;99474.50;15278294;19;20014;-46
2023/04/18 06:10:29;;;;;;;35.05;29.08;;;;;;;6.44;100.00;99472.78;15275416;19;20343;-46
2023/04/18 06:15:56;;;;;;;32.95;27.42;;;;;;;6.43;100.00;99473.75;15276506;19;20014;-45
2023/04/18 06:21:24;;;;;;;28.92;25.48;;;;;;;6.42;100.00;99473.88;15283807;19;20007;-45
2023/04/18 06:26:56;;;;;;;23.92;21.33;;;;;;;6.43;100.00;99471.06;15278364;19;20018;-48
2023/04/18 06:32:21;;;;;;;23.30;20.52;;;;;;;6.44;100.00;99466.59;15278281;19;20007;-45
2023/04/18 06:37:49;;;;;;;19.23;17.33;;;;;;;6.46;100.00;99448.59;15278523;19;20659;-48
2023/04/18 06:43:14;;;;;;;20.88;18.40;;;;;;;6.52;100.00;99439.28;15254153;19;20085;-47
2023/04/18 06:48:39;;;;;;;17.20;15.50;;;;;;;6.55;100.00;99425.66;15276193;19;20022;-45
2023/04/18 06:54:06;;;;;;;16.70;15.02;;;;;;;6.63;100.00;99410.75;15274830;19;20020;-50
2023/04/18 06:59:31;;;;;;;15.63;14.13;;;;;;;6.61;100.00;99398.44;15278042;19;20018;-45
2023/04/18 07:04:55;;;;;;;16.08;14.38;;;;;;;6.70;100.00;99391.56;15273893;19;20022;-48
2023/04/18 07:10:23;;;;;;;15.32;13.80;;;;;;;6.68;100.00;99378.25;15271799;19;20010;-47
2023/04/18 07:15:47;;;;;;;12.90;11.70;;;;;;;6.72;100.00;99373.53;15271218;19;20021;-45
2023/04/18 07:21:13;;;;;;;11.73;10.55;;;;;;;6.88;100.00;99384.00;15276387;19;20014;-46
2023/04/18 07:26:40;;;;;;;8.73;7.97;;;;;;;7.05;100.00;99383.56;15272799;19;20022;-45
2023/04/18 07:32:06;;;;;;;6.80;6.00;;;;;;;7.11;100.00;99362.66;15274778;19;20022;-45
2023/04/18 07:37:30;;;;;;;6.93;6.32;;;;;;;7.28;100.00;99358.69;15271477;19;20022;-45
2023/04/18 07:42:58;;;;;;;7.30;6.60;;;;;;;7.35;100.00;99358.09;15268238;19;20039;-46
2023/04/18 07:48:24;;;;;;;5.78;5.28;;;;;;;7.39;100.00;99354.22;15273159;19;20006;-48
2023/04/18 07:53:48;;;;;;;5.05;4.63;;;;;;;7.55;100.00;99345.81;15272399;19;20021;-45
2023/04/18 07:59:15;;;;;;;5.78;5.20;;;;;;;7.61;100.00;99339.13;15273396;19;20614;-45
2023/04/18 08:04:40;;;;;;;5.25;4.75;;;;;;;7.74;100.00;99332.81;15270656;19;20029;-47
2023/04/18 08:10:05;;;;;;;5.82;4.90;;;;;;;8.02;100.00;99347.56;15271759;19;20015;-50
2023/04/18 08:15:33;;;;;;;5.72;5.22;;;;;;;7.97;100.00;99344.41;15263472;19;20016;-50
2023/04/18 08:20:57;;;;;;;5.75;5.25;;;;;;;7.85;100.00;99335.50;15267596;19;20118;-46
2023/04/18 08:26:22;;;;;;;5.05;4.55;;;;;;;7.81;100.00;99340.25;15266128;19;20018;-46
2023/04/18 08:31:49;;;;;;;5.07;4.60;;;;;;;7.88;100.00;99337.94;15270859;19;20021;-46
2023/04/18 08:37:14;;;;;;;10.73;5.22;;;;;;;8.00;100.00;99336.09;15268915;19;20018;-46
2023/04/18 08:42:38;;;;;;;8.18;5.47;;;;;;;8.11;100.00;99337.94;15264391;19;20472;-46
2023/04/18 08:48:06;;;;;;;5.45;4.97;;;;;;;8.14;100.00;99340.38;15006813;19;5011371;-47
2023/04/18 08:53:31;;;;;;;5.93;4.70;;;;;;;8.15;100.00;99336.72;15283162;19;20049;-46
2023/04/18 08:58:58;;;;;;;4.80;4.32;;;;;;;8.08;100.00;99339.06;15285228;19;20037;-45
2023/04/18 09:04:38;;;;;;;4.95;4.55;;;;;;;8.01;100.00;99335.13;15281450;19;20021;-45
2023/04/18 09:10:05;;;;;;;5.68;5.18;;;;;;;8.16;100.00;99344.66;15284325;19;20015;-47
2023/04/18 09:15:30;;;;;;;5.30;4.80;;;;;;;8.24;100.00;99338.66;15279871;19;20344;-45
2023/04/18 09:20:58;;;;;;;4.68;4.28;;;;;;;8.17;100.00;99348.19;15280112;19;20022;-47
2023/04/18 09:26:41;;;;;;;5.15;4.65;;;;;;;8.20;100.00;99349.78;15277972;19;20014;-46
2023/04/18 09:32:06;;;;;;;5.55;4.97;;;;;;;8.06;100.00;99348.19;15282422;19;20021;-46
2023/04/18 09:37:34;;;;;;;4.93;4.50;;;;;;;8.01;100.00;99346.72;15282665;19;20017;-46
2023/04/18 09:42:58;;;;;;;4.95;4.45;;;;;;;7.96;100.00;99348.91;15279357;19;20483;-45
2023/04/18 09:48:23;;;;;;;5.50;4.80;;;;;;;7.94;100.00;99360.75;15281775;19;20017;-44
2023/04/18 09:53:50;;;;;;;4.78;4.35;;;;;;;7.91;100.00;99359.19;15275587;19;20015;-47
2023/04/18 09:59:17;;;;;;;6.80;4.53;;;;;;;7.92;100.00;99360.88;15279175;19;20044;-44
2023/04/18 10:04:43;;;;;;;5.55;4.80;;;;;;;7.99;100.00;99346.00;15275704;19;20026;-48
2023/04/18 10:10:11;;;;;;;5.13;4.63;;;;;;;8.16;100.00;99354.53;15279139;19;20010;-47
2023/04/18 10:15:36;;;;;;;5.50;4.88;;;;;;;8.22;100.00;99354.03;15277040;19;20094;-45
2023/04/18 10:21:10;;;;;;;4.97;4.47;;;;;;;8.24;100.00;99346.72;15281295;19;20006;-44
2023/04/18 10:26:59;;;;;;;5.50;4.88;;;;;;;8.29;100.00;99355.25;15271408;19;20833;-48
2023/04/18 10:32:25;;;;;;;5.00;4.50;;;;;;;8.22;100.00;99340.63;15277554;19;20482;-46
2023/04/18 10:37:58;;;;;;;5.00;4.50;;;;;;;8.35;100.00;99336.94;15277504;19;20018;-49
2023/04/18 10:43:25;;;;;;;5.95;5.03;;;;;;;8.40;100.00;99332.91;15276766;19;20928;-48
2023/04/18 10:48:50;;;;;;;5.85;4.80;;;;;;;8.52;100.00;99333.78;15277855;19;20018;-50
2023/04/18 10:54:22;;;;;;;5.53;4.93;;;;;;;8.57;100.00;99326.19;15275858;19;20010;-46
2023/04/18 10:59:51;;;;;;;5.38;4.80;;;;;;;8.82;100.00;99321.47;15270967;19;20044;-47
2023/04/18 11:05:20;;;;;;;6.07;4.60;;;;;;;9.05;100.00;99308.81;15269266;19;20478;-48
2023/04/18 11:10:45;;;;;;;8.43;4.70;;;;;;;9.21;100.00;99312.84;15273913;19;20016;-47
2023/04/18 11:16:27;;;;;;;6.32;4.88;;;;;;;9.12;100.00;99303.72;15270719;19;20358;-44
2023/04/18 11:21:52;;;;;;;5.50;4.85;;;;;;;9.41;100.00;99313.84;15274288;19;20018;-48
2023/04/18 11:27:23;;;;;;;6.78;4.70;;;;;;;9.42;100.00;99296.72;15272420;19;20093;-45
2023/04/18 11:32:50;;;;;;;5.83;4.77;;;;;;;9.46;100.00;99295.50;15268858;19;20021;-47
2023/04/18 11:38:17;;;;;;;5.57;4.95;;;;;;;9.58;100.00;99298.09;15274405;19;20022;-46
2023/04/18 11:43:45;;;;;;;6.07;4.70;;;;;;;9.74;100.00;99295.75;15271703;19;20025;-47
2023/04/18 11:49:12;;;;;;;5.72;4.30;;;;;;;9.70;100.00;99300.56;15272076;19;20022;-49
2023/04/18 11:54:44;;;;;;;4.82;4.07;;;;;;;9.62;100.00;99305.75;15272316;19;20018;-46
2023/04/18 12:00:11;;;;;;;5.13;4.40;;;;;;;9.62;100.00;99300.38;15272162;19;20026;-49
2023/04/18 12:05:39;;;;;;;6.72;4.40;;;;;;;9.50;100.00;99307.66;15263514;19;20021;-50
2023/04/18 12:11:05;;;;;;;5.35;4.20;;;;;;;9.44;100.00;99308.22;15270497;19;20010;-46
2023/04/18 12:16:30;;;;;;;5.57;4.38;;;;;;;9.54;100.00;99310.94;15269748;19;20017;-48
2023/04/18 12:22:08;;;;;;;4.68;4.20;;;;;;;9.48;100.00;99306.09;15268307;19;20025;-46
2023/04/18 12:27:55;;;;;;;6.78;4.90;;;;;;;9.55;100.00;99307.25;15263792;19;20991;-45
2023/04/18 12:33:19;;;;;;;6.03;4.82;;;;;;;9.75;100.00;99307.38;15263035;19;20787;-46
2023/04/18 12:38:47;;;;;;;5.28;4.78;;;;;;;9.80;100.00;99306.00;15268428;19;20029;-47
2023/04/18 12:44:12;;;;;;;5.28;4.78;;;;;;;9.90;100.00;99307.88;15265567;19;20015;-45
2023/04/18 12:49:37;;;;;;;6.85;5.15;;;;;;;9.95;100.00;99306.47;15267619;19;20021;-45
2023/04/18 12:55:04;;;;;;;7.55;4.88;;;;;;;10.00;100.00;99303.38;15265799;19;20011;-48
2023/04/18 13:00:31;;;;;;;5.90;5.30;;;;;;;9.98;100.00;99302.66;15268948;19;20701;-46
2023/04/18 13:05:56;;;;;;;5.70;5.10;;;;;;;9.84;100.00;99299.34;15261098;19;20021;-47
2023/04/18 13:11:27;;;;;;;6.18;4.95;;;;;;;9.90;100.00;99297.09;15267884;19;20538;-47
2023/04/18 13:16:52;;;;;;;5.53;4.50;;;;;;;9.91;100.00;99290.75;15269719;19;20010;-45
2023/04/18 13:22:16;;;;;;;5.55;4.93;;;;;;;9.92;100.00;99290.59;15267860;19;20089;-46
2023/04/18 13:27:51;;;;;;;5.13;4.30;;;;;;;9.81;100.00;99288.88;15262340;19;20039;-46
2023/04/18 13:33:18;;;;;;;5.25;4.75;;;;;;;9.79;100.00;99293.53;15264479;19;20014;-47
2023/04/18 13:38:43;;;;;;;5.47;4.90;;;;;;;9.75;100.00;99284.00;15268158;19;20040;-49
2023/04/18 13:44:11;;;;;;;5.68;4.70;;;;;;;9.73;100.00;99295.91;15278168;19;20026;-53
2023/04/18 13:49:37;;;;;;;5.57;5.05;;;;;;;9.65;100.00;99301.94;15279177;19;20019;-49
2023/04/18 13:55:02;;;;;;;6.45;5.28;;;;;;;9.63;100.00;99295.84;15274660;19;20018;-45
2023/04/18 14:00:30;;;;;;;5.72;5.13;;;;;;;9.56;100.00;99295.53;15276280;19;20490;-46
2023/04/18 14:05:55;;;;;;;6.55;5.75;;;;;;;9.46;100.00;99298.19;15273449;19;20014;-46
2023/04/18 14:11:19;;;;;;;7.00;5.63;;;;;;;9.43;100.00;99301.13;15269779;19;20022;-47
2023/04/18 14:16:46;;;;;;;6.47;5.82;;;;;;;9.35;100.00;99303.63;15273903;19;20016;-45
2023/04/18 14:22:11;;;;;;;7.10;6.40;;;;;;;9.26;100.00;99316.03;15271263;19;20018;-45
2023/04/18 14:27:42;;;;;;;7.22;6.53;;;;;;;9.26;100.00;99326.78;15269551;19;20006;-47
2023/04/18 14:33:10;;;;;;;7.83;6.53;;;;;;;9.18;100.00;99318.50;15270201;19;20479;-45
2023/04/18 14:38:35;;;;;;;7.07;6.38;;;;;;;9.18;100.00;99323.88;15274208;19;20017;-48
2023/04/18 14:44:00;;;;;;;7.55;6.80;;;;;;;9.14;100.00;99325.97;15265415;19;20479;-46
2023/04/18 14:49:27;;;;;;;9.30;7.05;;;;;;;9.06;100.00;99336.53;15275061;19;20038;-46
2023/04/18 14:54:52;;;;;;;7.30;6.60;;;;;;;9.03;100.00;99326.00;15270470;19;20371;-46
2023/04/18 15:00:17;;;;;;;7.88;6.70;;;;;;;8.96;100.00;99325.69;15273065;19;20352;-46
2023/04/18 15:05:47;;;;;;;8.02;6.88;;;;;;;8.84;100.00;99322.19;15272221;19;20020;-48
2023/04/18 15:11:14;;;;;;;12.60;7.32;;;;;;;8.79;100.00;99340.53;15273592;19;20019;-48
2023/04/18 15:16:39;;;;;;;8.82;7.90;;;;;;;8.72;100.00;99347.41;15269647;19;20363;-47
2023/04/18 15:22:07;;;;;;;11.00;8.60;;;;;;;8.69;100.00;99342.28;15218154;19;20033;-47
2023/04/18 15:27:39;;;;;;;10.68;8.10;;;;;;;8.64;100.00;99353.41;15269791;19;20860;-48
2023/04/18 15:33:04;;;;;;;9.00;8.10;;;;;;;8.65;100.00;99355.09;15272728;19;20033;-47
2023/04/18 15:38:32;;;;;;;8.15;7.25;;;;;;;8.68;100.00;99356.69;15273264;19;20085;-49
2023/04/18 15:43:57;;;;;;;8.90;7.00;;;;;;;8.66;100.00;99345.19;15273864;19;20263;-46
2023/04/18 15:49:24;;;;;;;9.55;7.22;;;;;;;8.60;100.00;99360.00;15268977;19;20022;-47
2023/04/18 15:54:53;;;;;;;8.07;7.07;;;;;;;8.56;100.00;99354.03;15272677;19;20026;-48
2023/04/18 16:00:21;;;;;;;10.40;6.90;;;;;;;8.56;100.00;99358.56;15269366;19;20383;-46
2023/04/18 16:05:46;;;;;;;10.55;7.07;;;;;;;8.52;100.00;99368.69;15267865;19;20078;-45
2023/04/18 16:11:13;;;;;;;8.35;7.15;;;;;;;8.50;100.00;99376.03;15270686;19;20026;-50
2023/04/18 16:16:38;;;;;;;9.07;6.78;;;;;;;8.48;100.00;99375.28;15267580;19;20014;-47
2023/04/18 16:22:02;;;;;;;7.15;6.35;;;;;;;8.47;100.00;99371.72;15263257;19;20038;-48
2023/04/18 16:27:36;;;;;;;7.70;6.13;;;;;;;8.46;100.00;99372.72;15265363;19;20030;-48
2023/04/18 16:33:01;;;;;;;6.55;5.85;;;;;;;8.47;100.00;99370.84;15266484;19;20025;-48
2023/04/18 16:38:26;;;;;;;7.55;6.00;;;;;;;8.45;100.00;99368.31;15271997;19;20010;-49
2023/04/18 16:43:53;;;;;;;6.32;5.70;;;;;;;8.43;100.00;99364.88;15267014;19;20778;-47
2023/04/18 16:49:19;;;;;;;9.55;6.80;;;;;;;8.36;100.00;99366.34;15264052;19;20014;-49
2023/04/18 16:54:44;;;;;;;8.68;6.82;;;;;;;8.37;100.00;99378.78;15253952;19;20745;-48
2023/04/18 17:00:13;;;;;;;6.70;5.90;;;;;;;8.36;100.00;99376.25;15268483;19;20018;-49
2023/04/18 17:05:39;;;;;;;8.90;6.60;;;;;;;8.35;100.00;99375.38;15264249;19;20011;-46
2023/04/18 17:11:03;;;;;;;6.32;5.72;;;;;;;8.32;100.00;99386.38;15273835;19;20018;-46
2023/04/18 17:16:30;;;;;;;7.78;6.68;;;;;;;8.32;100.00;99376.47;15284253;19;20018;-46
2023/04/18 17:21:55;;;;;;;7.55;6.53;;;;;;;8.32;100.00;99379.16;15281837;19;20385;-47
2023/04/18 17:27:26;;;;;;;8.07;6.60;;;;;;;8.32;100.00;99381.00;15272253;19;20025;-46
2023/04/18 17:32:53;;;;;;;8.00;6.43;;;;;;;8.32;100.00;99395.28;15281857;19;20010;-47
2023/04/18 17:38:18;;;;;;;7.38;6.47;;;;;;;8.31;100.00;99398.94;15281377;19;20022;-46
2023/04/18 17:43:43;;;;;;;10.55;7.13;;;;;;;8.30;100.00;99410.66;15266154;19;20014;-50
2023/04/18 17:49:10;;;;;;;8.77;7.03;;;;;;;8.26;100.00;99408.34;15272452;19;20018;-46
2023/04/18 17:54:36;;;;;;;10.93;7.38;;;;;;;8.23;100.00;99425.56;15275257;19;20022;-45
2023/04/18 18:00:04;;;;;;;10.18;7.82;;;;;;;8.18;100.00;99428.59;15281431;19;20006;-45
2023/04/18 18:05:32;;;;;;;11.15;8.45;;;;;;;8.18;100.00;99447.41;15275911;19;20021;-45
2023/04/18 18:10:57;;;;;;;11.85;9.15;;;;;;;8.16;100.00;99462.75;15278686;19;20011;-46
2023/04/18 18:16:22;;;;;;;12.77;9.63;;;;;;;8.14;100.00;99471.91;15274556;19;20014;-47
2023/04/18 18:21:50;;;;;;;13.40;9.63;;;;;;;8.12;100.00;99476.53;15270232;19;20613;-45
2023/04/18 18:27:15;;;;;;;14.23;10.80;;;;;;;8.11;100.00;99486.44;15271566;19;20018;-46
2023/04/18 18:32:39;;;;;;;14.20;11.27;;;;;;;8.11;100.00;99489.13;15275321;19;20019;-46
2023/04/18 18:38:06;;;;;;;18.30;12.27;;;;;;;8.11;100.00;99512.41;15277836;19;20019;-47
2023/04/18 18:43:31;;;;;;;15.80;11.82;;;;;;;8.12;100.00;99512.28;15274905;19;20020;-48
2023/04/18 18:48:56;;;;;;;14.48;11.35;;;;;;;8.15;100.00;99505.84;15274104;19;20025;-47
2023/04/18 18:54:24;;;;;;;13.85;11.10;;;;;;;8.14;100.00;99513.03;15264933;19;20010;-45
2023/04/18 18:59:50;;;;;;;13.88;10.88;;;;;;;8.13;100.00;99510.47;15274058;19;20025;-48
2023/04/18 19:05:16;;;;;;;15.05;11.13;;;;;;;8.16;100.00;99510.25;15269857;19;20018;-47
2023/04/18 19:10:44;;;;;;;13.13;11.00;;;;;;;8.17;100.00;99503.91;15274439;19;20021;-51
2023/04/18 19:16:09;;;;;;;14.15;10.48;;;;;;;8.16;100.00;99505.72;15269865;19;20517;-48
2023/04/18 19:21:34;;;;;;;17.02;11.77;;;;;;;8.15;100.00;99505.84;15271123;19;20018;-47
2023/04/18 19:27:08;;;;;;;13.20;10.65;;;;;;;8.12;100.00;99511.44;15263008;19;20476;-46
2023/04/18 19:32:33;;;;;;;11.68;10.40;;;;;;;8.12;100.00;99522.19;15269438;19;20015;-47
2023/04/18 19:38:00;;;;;;;14.18;11.45;;;;;;;8.08;100.00;99526.94;15269149;19;20025;-47
2023/04/18 19:43:27;;;;;;;13.88;11.38;;;;;;;8.05;100.00;99524.47;15267389;19;20025;-46
2023/04/18 19:48:52;;;;;;;13.43;11.50;;;;;;;8.06;100.00;99526.19;15264035;19;20502;-47
2023/04/18 19:54:18;;;;;;;15.00;12.20;;;;;;;8.07;100.00;99535.09;15268043;19;20016;-48
2023/04/18 19:59:45;;;;;;;14.90;12.55;;;;;;;8.09;100.00;99542.06;15264718;19;20018;-47
2023/04/18 20:05:11;;;;;;;15.30;12.32;;;;;;;8.12;100.00;99539.13;15267950;19;20471;-47
2023/04/18 20:10:36;;;;;;;16.48;12.95;;;;;;;8.17;100.00;99536.09;15267096;19;20025;-46
2023/04/18 20:16:03;;;;;;;15.43;12.80;;;;;;;8.22;100.00;99519.66;15266883;19;20025;-46
2023/04/18 20:21:28;;;;;;;13.82;11.68;;;;;;;8.26;100.00;99516.59;15269788;19;20018;-47
2023/04/18 20:26:59;;;;;;;14.88;11.52;;;;;;;8.30;100.00;99518.03;15268752;19;20022;-46
2023/04/18 20:32:26;;;;;;;13.47;11.47;;;;;;;8.30;100.00;99511.84;15268369;19;20014;-47
2023/04/18 20:37:45;;;;;;;13.57;11.55;;;;;;;8.34;100.00;99507.94;15273132;19;20020;-47
2023/04/18 20:43:09;;;;;;;13.50;11.50;;;;;;;8.30;100.00;99510.00;15266065;19;20014;-46
2023/04/18 20:48:36;;;;;;;14.00;12.50;;;;;;;8.30;100.00;99506.47;15281394;19;20664;-46
2023/04/18 20:54:01;;;;;;;15.48;13.63;;;;;;;8.31;100.00;99503.66;15282096;19;20018;-47
2023/04/18 20:59:26;;;;;;;18.00;14.60;;;;;;;8.29;100.00;99507.44;15280437;19;20022;-47
2023/04/18 21:04:53;;;;;;;19.30;15.23;;;;;;;8.30;100.00;99493.88;15279069;19;20029;-47
2023/04/18 21:10:18;;;;;;;17.27;15.27;;;;;;;8.31;100.00;99495.59;15279593;19;20025;-48
2023/04/18 21:15:42;;;;;;;17.40;15.60;;;;;;;8.30;100.00;99485.81;15278906;19;20421;-46
2023/04/18 21:21:16;;;;;;;17.08;14.90;;;;;;;8.33;100.00;99485.59;15286547;19;20012;-47
2023/04/18 21:26:48;;;;;;;17.50;15.60;;;;;;;8.33;100.00;99479.38;15280263;19;20015;-48
2023/04/18 21:32:13;;;;;;;17.20;15.40;;;;;;;8.34;100.00;99465.00;15277576;19;20652;-48
2023/04/18 21:37:40;;;;;;;17.10;15.25;;;;;;;8.35;100.00;99473.88;15283710;19;20475;-46
2023/04/18 21:43:05;;;;;;;17.38;15.23;;;;;;;8.33;100.00;99469.47;15281462;19;20100;-47
2023/04/18 21:48:29;;;;;;;18.35;16.17;;;;;;;8.32;100.00;99467.78;15283669;19;20014;-45
2023/04/18 21:53:57;;;;;;;18.55;16.33;;;;;;;8.31;100.00;99476.81;15282210;19;20022;-46
2023/04/18 21:59:22;;;;;;;18.23;16.15;;;;;;;8.31;100.00;99470.59;15280794;19;20014;-47
2023/04/18 22:04:47;;;;;;;18.63;16.45;;;;;;;8.30;100.00;99472.41;15270098;19;20026;-45
2023/04/18 22:10:16;;;;;;;18.23;16.25;;;;;;;8.31;100.00;99463.38;15278242;19;20920;-47
2023/04/18 22:15:41;;;;;;;18.85;16.85;;;;;;;8.33;100.00;99457.91;15275255;19;20040;-46
2023/04/18 22:21:08;;;;;;;20.52;17.70;;;;;;;8.30;100.00;99452.75;15283047;19;20022;-46
2023/04/18 22:26:35;;;;;;;20.88;17.42;;;;;;;8.32;100.00;99450.81;15278311;19;20025;-46
2023/04/18 22:32:00;;;;;;;24.05;18.80;;;;;;;8.30;100.00;99447.41;15275764;19;20775;-46
2023/04/18 22:37:25;;;;;;;18.40;14.90;;;;;;;8.30;100.00;99442.88;15273315;19;20034;-47
2023/04/18 22:42:53;;;;;;;16.38;13.65;;;;;;;8.33;100.00;99449.84;15278931;19;20021;-45
2023/04/18 22:48:18;;;;;;;13.73;12.23;;;;;;;8.39;100.00;99441.28;15276890;19;20022;-47
2023/04/18 22:53:42;;;;;;;13.13;10.60;;;;;;;8.46;100.00;99430.91;15276171;19;20011;-46
2023/04/18 22:59:09;;;;;;;11.95;10.27;;;;;;;8.51;100.00;99417.16;15279414;19;20017;-48
2023/04/18 23:04:35;;;;;;;11.27;10.07;;;;;;;8.52;100.00;99402.75;15273330;19;20026;-47
2023/04/18 23:10:00;;;;;;;10.45;9.35;;;;;;;8.56;100.00;99388.09;15268182;19;20022;-46
2023/04/18 23:15:27;;;;;;;9.05;8.15;;;;;;;8.56;100.00;99377.34;15272705;19;20026;-45
2023/04/18 23:20:52;;;;;;;8.65;6.72;;;;;;;8.55;100.00;99354.16;15276291;19;20017;-49
2023/04/18 23:26:22;;;;;;;6.40;5.40;;;;;;;8.52;100.00;99333.78;15273479;19;20432;-46
2023/04/18 23:31:50;;;;;;;5.47;4.80;;;;;;;8.52;100.00;99323.03;15277644;19;20056;-49
2023/04/18 23:37:16;;;;;;;6.57;4.53;;;;;;;8.49;100.00;99307.16;15280716;19;20007;-46
2023/04/18 23:42:41;;;;;;;5.82;4.38;;;;;;;8.44;100.00;99301.28;15274695;19;20606;-48
2023/04/18 23:48:08;;;;;;;5.78;3.80;;;;;;;8.47;100.00;99298.34;15228392;19;20048;-49
2023/04/18 23:53:33;;;;;;;4.88;4.00;;;;;;;8.40;100.00;99298.00;15275460;19;20015;-45
2023/04/18 23:58:58;;;;;;;5.95;4.50;;;;;;;8.33;100.00;99289.59;15275446;19;20782;-46
